KCMX/CMX METAR and TAF weather

Enter ICAO airport designator
Station Type Date Time Source
KCMX METAR 2022/06/28 14:53 UTC NOAA

KCMX 281453Z AUTO 28015G23KT 10SM BKN100 19/10 A2997 RMK AO2 PK WND 29031/1356 SLP147 T01890100 58001


Station Type Date Time Source
KCMX Decoded METAR 2022/06/28 14:53 UTC NOAA

HANCOCK HOUGHTON CTY. MEMO, MI, United States (KCMX) 47-10N 088-29W 326M
Jun 28, 2022 - 10:53 AM EDT / 2022.06.28 1453 UTC
Wind: from the W (280 degrees) at 17 MPH (15 KT) gusting to 26 MPH (23 KT):0
Visibility: 10 mile(s):0
Sky conditions: mostly cloudy
Temperature: 66.0 F (18.9 C)
Dew Point: 50.0 F (10.0 C)
Relative Humidity: 56%
Pressure (altimeter): 29.97 in. Hg (1014 hPa)
Pressure tendency: 0.00 inches (0.1 hPa) lower than three hours ago
ob: KCMX 281453Z AUTO 28015G23KT 10SM BKN100 19/10 A2997 RMK AO2 PK WND 29031/1356 SLP147 T01890100 58001
cycle: 15

Station Type Date Time Source
KCMX TAF 2022/06/28 14:33 UTC NOAA

TAF
AMD KCMX 281331Z 2814/2912 28020G30KT P6SM VCSH BKN080
FM281600 28012G25KT P6SM -SHRA BKN050
FM282000 30009KT P6SM BKN060
FM290000 33005KT P6SM FEW060

Example: see airport list